sensor_id;sensor_type;location;lat;lon;timestamp;temperature;humidity
4354;DHT22;11018;51.258;6.806;2024-02-23T00:01:32;7.20;47.70
4354;DHT22;11018;51.258;6.806;2024-02-23T00:03:57;7.20;47.70
4354;DHT22;11018;51.258;6.806;2024-02-23T00:06:23;7.20;47.60
4354;DHT22;11018;51.258;6.806;2024-02-23T00:08:53;7.20;46.80
4354;DHT22;11018;51.258;6.806;2024-02-23T00:11:20;7.20;46.50
4354;DHT22;11018;51.258;6.806;2024-02-23T00:13:45;7.20;46.40
4354;DHT22;11018;51.258;6.806;2024-02-23T00:16:11;7.20;46.90
4354;DHT22;11018;51.258;6.806;2024-02-23T00:18:37;7.20;46.30
4354;DHT22;11018;51.258;6.806;2024-02-23T00:21:03;7.30;45.90
4354;DHT22;11018;51.258;6.806;2024-02-23T00:23:28;7.20;45.80
4354;DHT22;11018;51.258;6.806;2024-02-23T00:25:54;7.10;47.30
4354;DHT22;11018;51.258;6.806;2024-02-23T00:28:19;7.00;47.30
4354;DHT22;11018;51.258;6.806;2024-02-23T00:30:45;7.00;47.90
4354;DHT22;11018;51.258;6.806;2024-02-23T00:33:11;6.90;48.20
4354;DHT22;11018;51.258;6.806;2024-02-23T00:35:36;6.90;48.10
4354;DHT22;11018;51.258;6.806;2024-02-23T00:38:02;6.70;48.20
4354;DHT22;11018;51.258;6.806;2024-02-23T00:40:27;6.70;48.40
4354;DHT22;11018;51.258;6.806;2024-02-23T00:42:53;6.70;48.60
4354;DHT22;11018;51.258;6.806;2024-02-23T00:45:19;6.60;48.40
4354;DHT22;11018;51.258;6.806;2024-02-23T00:47:44;6.60;49.00
4354;DHT22;11018;51.258;6.806;2024-02-23T00:50:12;6.50;49.30
4354;DHT22;11018;51.258;6.806;2024-02-23T00:52:37;6.50;50.00
4354;DHT22;11018;51.258;6.806;2024-02-23T00:55:03;6.50;49.60
4354;DHT22;11018;51.258;6.806;2024-02-23T00:57:29;6.40;49.90
4354;DHT22;11018;51.258;6.806;2024-02-23T00:59:56;6.40;50.40
4354;DHT22;11018;51.258;6.806;2024-02-23T01:02:21;6.30;51.40
4354;DHT22;11018;51.258;6.806;2024-02-23T01:04:47;6.20;51.80
4354;DHT22;11018;51.258;6.806;2024-02-23T01:07:12;6.20;52.40
4354;DHT22;11018;51.258;6.806;2024-02-23T01:09:38;6.20;53.00
4354;DHT22;11018;51.258;6.806;2024-02-23T01:12:04;6.20;53.90
4354;DHT22;11018;51.258;6.806;2024-02-23T01:14:29;6.20;54.20
4354;DHT22;11018;51.258;6.806;2024-02-23T01:16:55;6.10;55.20
4354;DHT22;11018;51.258;6.806;2024-02-23T01:19:20;6.00;56.00
4354;DHT22;11018;51.258;6.806;2024-02-23T01:21:46;6.10;56.60
4354;DHT22;11018;51.258;6.806;2024-02-23T01:24:11;6.00;57.00
4354;DHT22;11018;51.258;6.806;2024-02-23T01:26:37;6.10;57.40
4354;DHT22;11018;51.258;6.806;2024-02-23T01:29:03;6.20;56.50
4354;DHT22;11018;51.258;6.806;2024-02-23T01:31:28;6.30;55.10
4354;DHT22;11018;51.258;6.806;2024-02-23T01:33:54;6.40;52.90
4354;DHT22;11018;51.258;6.806;2024-02-23T01:36:20;6.40;53.00
4354;DHT22;11018;51.258;6.806;2024-02-23T01:38:45;6.50;52.50
4354;DHT22;11018;51.258;6.806;2024-02-23T01:41:11;6.50;51.80
4354;DHT22;11018;51.258;6.806;2024-02-23T01:43:37;6.50;51.50
4354;DHT22;11018;51.258;6.806;2024-02-23T01:46:03;6.70;50.60
4354;DHT22;11018;51.258;6.806;2024-02-23T01:48:30;6.60;50.50
4354;DHT22;11018;51.258;6.806;2024-02-23T01:50:57;6.60;50.00
4354;DHT22;11018;51.258;6.806;2024-02-23T01:53:22;6.60;50.40
4354;DHT22;11018;51.258;6.806;2024-02-23T01:55:51;6.50;50.70
4354;DHT22;11018;51.258;6.806;2024-02-23T01:58:18;6.40;51.20
4354;DHT22;11018;51.258;6.806;2024-02-23T02:00:45;6.30;52.30
4354;DHT22;11018;51.258;6.806;2024-02-23T02:03:10;6.30;52.50
4354;DHT22;11018;51.258;6.806;2024-02-23T02:05:37;6.30;52.70
4354;DHT22;11018;51.258;6.806;2024-02-23T02:08:03;6.30;53.00
4354;DHT22;11018;51.258;6.806;2024-02-23T02:10:29;6.20;52.80
4354;DHT22;11018;51.258;6.806;2024-02-23T02:12:54;6.30;52.80
4354;DHT22;11018;51.258;6.806;2024-02-23T02:15:20;6.40;52.60
4354;DHT22;11018;51.258;6.806;2024-02-23T02:17:47;6.30;53.10
4354;DHT22;11018;51.258;6.806;2024-02-23T02:20:13;6.30;51.00
4354;DHT22;11018;51.258;6.806;2024-02-23T02:22:39;6.30;51.00
4354;DHT22;11018;51.258;6.806;2024-02-23T02:25:06;6.30;50.80
4354;DHT22;11018;51.258;6.806;2024-02-23T02:27:32;6.30;51.60
4354;DHT22;11018;51.258;6.806;2024-02-23T02:29:57;6.20;51.10
4354;DHT22;11018;51.258;6.806;2024-02-23T02:32:23;6.30;50.50
4354;DHT22;11018;51.258;6.806;2024-02-23T02:34:49;6.30;50.80
4354;DHT22;11018;51.258;6.806;2024-02-23T02:37:14;6.20;51.40
4354;DHT22;11018;51.258;6.806;2024-02-23T02:39:40;6.20;51.70
4354;DHT22;11018;51.258;6.806;2024-02-23T02:42:06;6.10;52.00
4354;DHT22;11018;51.258;6.806;2024-02-23T02:44:32;6.10;51.30
4354;DHT22;11018;51.258;6.806;2024-02-23T02:46:57;6.10;51.80
4354;DHT22;11018;51.258;6.806;2024-02-23T02:49:23;6.10;51.60
4354;DHT22;11018;51.258;6.806;2024-02-23T02:51:49;6.10;50.80
4354;DHT22;11018;51.258;6.806;2024-02-23T02:54:15;6.00;52.20
4354;DHT22;11018;51.258;6.806;2024-02-23T02:56:43;6.00;51.50
4354;DHT22;11018;51.258;6.806;2024-02-23T02:59:11;6.00;51.40
4354;DHT22;11018;51.258;6.806;2024-02-23T03:01:37;5.90;51.70
4354;DHT22;11018;51.258;6.806;2024-02-23T03:04:02;5.90;52.50
4354;DHT22;11018;51.258;6.806;2024-02-23T03:06:28;5.90;52.20
4354;DHT22;11018;51.258;6.806;2024-02-23T03:08:53;5.90;52.20
4354;DHT22;11018;51.258;6.806;2024-02-23T03:11:19;6.00;51.50
4354;DHT22;11018;51.258;6.806;2024-02-23T03:13:44;6.10;51.10
4354;DHT22;11018;51.258;6.806;2024-02-23T03:16:17;6.20;50.90
4354;DHT22;11018;51.258;6.806;2024-02-23T03:18:43;6.20;50.30
4354;DHT22;11018;51.258;6.806;2024-02-23T03:21:09;6.20;50.30
4354;DHT22;11018;51.258;6.806;2024-02-23T03:23:36;6.20;50.20
4354;DHT22;11018;51.258;6.806;2024-02-23T03:26:01;6.10;50.30
4354;DHT22;11018;51.258;6.806;2024-02-23T03:28:27;6.20;49.70
4354;DHT22;11018;51.258;6.806;2024-02-23T03:30:53;6.10;49.90
4354;DHT22;11018;51.258;6.806;2024-02-23T03:33:18;6.20;49.70
4354;DHT22;11018;51.258;6.806;2024-02-23T03:35:44;6.20;49.40
4354;DHT22;11018;51.258;6.806;2024-02-23T03:38:09;6.20;49.30
4354;DHT22;11018;51.258;6.806;2024-02-23T03:40:35;6.20;49.30
4354;DHT22;11018;51.258;6.806;2024-02-23T03:43:01;6.20;49.20
4354;DHT22;11018;51.258;6.806;2024-02-23T03:45:27;6.20;48.80
4354;DHT22;11018;51.258;6.806;2024-02-23T03:47:53;6.10;49.00
4354;DHT22;11018;51.258;6.806;2024-02-23T03:50:19;6.10;48.80
4354;DHT22;11018;51.258;6.806;2024-02-23T03:52:44;6.10;48.60
4354;DHT22;11018;51.258;6.806;2024-02-23T03:55:10;6.10;49.20
4354;DHT22;11018;51.258;6.806;2024-02-23T03:57:35;6.10;48.80
4354;DHT22;11018;51.258;6.806;2024-02-23T04:00:01;6.10;48.30
4354;DHT22;11018;51.258;6.806;2024-02-23T04:02:27;6.10;47.90
4354;DHT22;11018;51.258;6.806;2024-02-23T04:04:53;6.10;48.10
4354;DHT22;11018;51.258;6.806;2024-02-23T04:07:19;6.20;47.50
4354;DHT22;11018;51.258;6.806;2024-02-23T04:09:45;6.20;47.50
4354;DHT22;11018;51.258;6.806;2024-02-23T04:12:10;6.20;47.10
4354;DHT22;11018;51.258;6.806;2024-02-23T04:14:36;6.10;47.50
4354;DHT22;11018;51.258;6.806;2024-02-23T04:17:04;6.10;47.80
4354;DHT22;11018;51.258;6.806;2024-02-23T04:19:30;6.00;47.90
4354;DHT22;11018;51.258;6.806;2024-02-23T04:21:55;6.10;47.80
4354;DHT22;11018;51.258;6.806;2024-02-23T04:24:21;6.10;48.00
4354;DHT22;11018;51.258;6.806;2024-02-23T04:26:46;6.10;47.40
4354;DHT22;11018;51.258;6.806;2024-02-23T04:29:12;6.10;47.40
4354;DHT22;11018;51.258;6.806;2024-02-23T04:31:38;6.20;46.70
4354;DHT22;11018;51.258;6.806;2024-02-23T04:34:03;6.40;46.00
4354;DHT22;11018;51.258;6.806;2024-02-23T04:36:29;6.50;45.80
4354;DHT22;11018;51.258;6.806;2024-02-23T04:38:54;6.50;45.50
4354;DHT22;11018;51.258;6.806;2024-02-23T04:41:20;6.70;45.00
4354;DHT22;11018;51.258;6.806;2024-02-23T04:43:47;6.70;44.60
4354;DHT22;11018;51.258;6.806;2024-02-23T04:46:13;6.70;44.70
4354;DHT22;11018;51.258;6.806;2024-02-23T04:48:38;6.80;44.10
4354;DHT22;11018;51.258;6.806;2024-02-23T04:51:04;6.90;43.80
4354;DHT22;11018;51.258;6.806;2024-02-23T04:53:30;6.90;43.50
4354;DHT22;11018;51.258;6.806;2024-02-23T04:55:56;6.90;43.20
4354;DHT22;11018;51.258;6.806;2024-02-23T04:58:21;7.10;42.90
4354;DHT22;11018;51.258;6.806;2024-02-23T05:00:47;7.20;42.40
4354;DHT22;11018;51.258;6.806;2024-02-23T05:03:13;7.20;42.70
4354;DHT22;11018;51.258;6.806;2024-02-23T05:05:39;7.10;42.60
4354;DHT22;11018;51.258;6.806;2024-02-23T05:08:05;7.10;42.70
4354;DHT22;11018;51.258;6.806;2024-02-23T05:10:30;7.20;42.40
4354;DHT22;11018;51.258;6.806;2024-02-23T05:12:56;7.20;41.80
4354;DHT22;11018;51.258;6.806;2024-02-23T05:15:21;7.20;41.60
4354;DHT22;11018;51.258;6.806;2024-02-23T05:17:47;7.10;42.00
4354;DHT22;11018;51.258;6.806;2024-02-23T05:20:14;7.10;41.90
4354;DHT22;11018;51.258;6.806;2024-02-23T05:22:40;7.20;41.70
4354;DHT22;11018;51.258;6.806;2024-02-23T05:25:06;7.20;41.40
4354;DHT22;11018;51.258;6.806;2024-02-23T05:27:31;7.20;41.00
4354;DHT22;11018;51.258;6.806;2024-02-23T05:29:57;7.20;41.20
4354;DHT22;11018;51.258;6.806;2024-02-23T05:32:23;7.10;41.30
4354;DHT22;11018;51.258;6.806;2024-02-23T05:34:48;7.00;41.40
4354;DHT22;11018;51.258;6.806;2024-02-23T05:37:17;7.00;41.60
4354;DHT22;11018;51.258;6.806;2024-02-23T05:39:43;7.10;41.50
4354;DHT22;11018;51.258;6.806;2024-02-23T05:42:09;7.10;41.60
4354;DHT22;11018;51.258;6.806;2024-02-23T05:44:36;7.10;41.20
4354;DHT22;11018;51.258;6.806;2024-02-23T05:47:01;7.10;41.40
4354;DHT22;11018;51.258;6.806;2024-02-23T05:49:27;7.10;41.50
4354;DHT22;11018;51.258;6.806;2024-02-23T05:51:53;7.10;41.80
4354;DHT22;11018;51.258;6.806;2024-02-23T05:54:18;7.10;41.10
4354;DHT22;11018;51.258;6.806;2024-02-23T05:56:44;7.30;40.70
4354;DHT22;11018;51.258;6.806;2024-02-23T05:59:11;7.30;40.80
4354;DHT22;11018;51.258;6.806;2024-02-23T06:01:36;7.20;41.20
4354;DHT22;11018;51.258;6.806;2024-02-23T06:04:02;7.20;41.10
4354;DHT22;11018;51.258;6.806;2024-02-23T06:06:28;7.40;40.00
4354;DHT22;11018;51.258;6.806;2024-02-23T06:08:53;7.40;39.90
4354;DHT22;11018;51.258;6.806;2024-02-23T06:11:19;7.30;40.00
4354;DHT22;11018;51.258;6.806;2024-02-23T06:13:44;7.30;40.10
4354;DHT22;11018;51.258;6.806;2024-02-23T06:16:11;7.30;39.70
4354;DHT22;11018;51.258;6.806;2024-02-23T06:18:37;7.20;39.90
4354;DHT22;11018;51.258;6.806;2024-02-23T06:21:11;7.30;39.50
4354;DHT22;11018;51.258;6.806;2024-02-23T06:23:38;7.30;39.30
4354;DHT22;11018;51.258;6.806;2024-02-23T06:26:05;7.30;39.60
4354;DHT22;11018;51.258;6.806;2024-02-23T06:28:30;7.20;39.70
4354;DHT22;11018;51.258;6.806;2024-02-23T06:30:56;7.30;39.30
4354;DHT22;11018;51.258;6.806;2024-02-23T06:33:22;7.30;38.80
4354;DHT22;11018;51.258;6.806;2024-02-23T06:35:47;7.30;39.30
4354;DHT22;11018;51.258;6.806;2024-02-23T06:38:13;7.20;39.40
4354;DHT22;11018;51.258;6.806;2024-02-23T06:40:38;7.20;39.60
4354;DHT22;11018;51.258;6.806;2024-02-23T06:43:04;7.20;39.40
4354;DHT22;11018;51.258;6.806;2024-02-23T06:45:30;7.10;39.60
4354;DHT22;11018;51.258;6.806;2024-02-23T06:47:55;7.10;40.10
4354;DHT22;11018;51.258;6.806;2024-02-23T06:50:21;7.20;39.40
4354;DHT22;11018;51.258;6.806;2024-02-23T06:52:47;7.20;39.30
4354;DHT22;11018;51.258;6.806;2024-02-23T06:55:13;7.30;39.30
4354;DHT22;11018;51.258;6.806;2024-02-23T06:57:39;7.30;39.30
4354;DHT22;11018;51.258;6.806;2024-02-23T07:00:05;7.30;39.30
4354;DHT22;11018;51.258;6.806;2024-02-23T07:02:32;7.40;39.10
4354;DHT22;11018;51.258;6.806;2024-02-23T07:05:02;7.40;38.90
4354;DHT22;11018;51.258;6.806;2024-02-23T07:07:30;7.30;39.30
4354;DHT22;11018;51.258;6.806;2024-02-23T07:09:56;7.20;39.60
4354;DHT22;11018;51.258;6.806;2024-02-23T07:12:22;7.20;39.60
4354;DHT22;11018;51.258;6.806;2024-02-23T07:14:48;7.10;39.90
4354;DHT22;11018;51.258;6.806;2024-02-23T07:17:17;7.10;39.80
4354;DHT22;11018;51.258;6.806;2024-02-23T07:19:42;7.10;39.90
4354;DHT22;11018;51.258;6.806;2024-02-23T07:22:08;7.20;38.90
4354;DHT22;11018;51.258;6.806;2024-02-23T07:24:33;7.10;39.50
4354;DHT22;11018;51.258;6.806;2024-02-23T07:26:59;7.10;39.80
4354;DHT22;11018;51.258;6.806;2024-02-23T07:29:24;7.00;39.80
4354;DHT22;11018;51.258;6.806;2024-02-23T07:31:50;7.20;39.60
4354;DHT22;11018;51.258;6.806;2024-02-23T07:34:16;7.30;39.50
4354;DHT22;11018;51.258;6.806;2024-02-23T07:36:41;7.40;39.30
4354;DHT22;11018;51.258;6.806;2024-02-23T07:39:08;7.50;39.00
4354;DHT22;11018;51.258;6.806;2024-02-23T07:41:34;7.60;39.00
4354;DHT22;11018;51.258;6.806;2024-02-23T07:43:59;7.60;38.90
4354;DHT22;11018;51.258;6.806;2024-02-23T07:46:25;7.70;39.00
4354;DHT22;11018;51.258;6.806;2024-02-23T07:48:50;7.80;38.70
4354;DHT22;11018;51.258;6.806;2024-02-23T07:51:16;7.80;38.30
4354;DHT22;11018;51.258;6.806;2024-02-23T07:53:41;7.90;38.10
4354;DHT22;11018;51.258;6.806;2024-02-23T07:56:07;8.00;37.70
4354;DHT22;11018;51.258;6.806;2024-02-23T07:58:33;8.10;37.30
4354;DHT22;11018;51.258;6.806;2024-02-23T08:00:59;8.20;37.30
4354;DHT22;11018;51.258;6.806;2024-02-23T08:03:24;8.40;36.80
4354;DHT22;11018;51.258;6.806;2024-02-23T08:05:51;8.50;35.90
4354;DHT22;11018;51.258;6.806;2024-02-23T08:08:17;8.50;35.50
4354;DHT22;11018;51.258;6.806;2024-02-23T08:10:43;8.60;35.90
4354;DHT22;11018;51.258;6.806;2024-02-23T08:13:09;8.70;35.40
4354;DHT22;11018;51.258;6.806;2024-02-23T08:15:36;8.70;35.30
4354;DHT22;11018;51.258;6.806;2024-02-23T08:18:02;8.60;34.90
4354;DHT22;11018;51.258;6.806;2024-02-23T08:20:27;8.70;34.90
4354;DHT22;11018;51.258;6.806;2024-02-23T08:22:53;8.60;35.20
4354;DHT22;11018;51.258;6.806;2024-02-23T08:25:18;8.60;35.30
4354;DHT22;11018;51.258;6.806;2024-02-23T08:27:44;8.50;35.70
4354;DHT22;11018;51.258;6.806;2024-02-23T08:30:10;8.50;35.50
4354;DHT22;11018;51.258;6.806;2024-02-23T08:32:36;8.50;35.20
4354;DHT22;11018;51.258;6.806;2024-02-23T08:35:02;8.50;35.40
4354;DHT22;11018;51.258;6.806;2024-02-23T08:37:28;8.50;35.60
4354;DHT22;11018;51.258;6.806;2024-02-23T08:39:53;8.60;35.20
4354;DHT22;11018;51.258;6.806;2024-02-23T08:42:19;8.70;35.00
4354;DHT22;11018;51.258;6.806;2024-02-23T08:44:45;8.80;34.60
4354;DHT22;11018;51.258;6.806;2024-02-23T08:47:10;9.00;34.00
4354;DHT22;11018;51.258;6.806;2024-02-23T08:49:37;9.10;33.60
4354;DHT22;11018;51.258;6.806;2024-02-23T08:52:03;9.30;32.70
4354;DHT22;11018;51.258;6.806;2024-02-23T08:54:29;9.40;32.20
4354;DHT22;11018;51.258;6.806;2024-02-23T08:56:54;9.50;32.40
4354;DHT22;11018;51.258;6.806;2024-02-23T08:59:20;9.40;32.00
4354;DHT22;11018;51.258;6.806;2024-02-23T09:01:46;9.40;31.90
4354;DHT22;11018;51.258;6.806;2024-02-23T09:04:12;9.40;31.60
4354;DHT22;11018;51.258;6.806;2024-02-23T09:06:38;9.50;31.30
4354;DHT22;11018;51.258;6.806;2024-02-23T09:09:03;9.60;31.20
4354;DHT22;11018;51.258;6.806;2024-02-23T09:11:29;9.60;31.00
4354;DHT22;11018;51.258;6.806;2024-02-23T09:13:55;9.50;31.20
4354;DHT22;11018;51.258;6.806;2024-02-23T09:16:20;9.50;31.20
4354;DHT22;11018;51.258;6.806;2024-02-23T09:18:48;9.50;31.00
4354;DHT22;11018;51.258;6.806;2024-02-23T09:21:14;9.60;31.00
4354;DHT22;11018;51.258;6.806;2024-02-23T09:23:40;9.70;30.80
4354;DHT22;11018;51.258;6.806;2024-02-23T09:26:09;9.80;29.90
4354;DHT22;11018;51.258;6.806;2024-02-23T09:28:36;9.90;29.70
4354;DHT22;11018;51.258;6.806;2024-02-23T09:31:02;10.10;29.60
4354;DHT22;11018;51.258;6.806;2024-02-23T09:33:28;10.20;29.50
4354;DHT22;11018;51.258;6.806;2024-02-23T09:35:54;10.30;28.50
4354;DHT22;11018;51.258;6.806;2024-02-23T09:38:19;10.30;28.80
4354;DHT22;11018;51.258;6.806;2024-02-23T09:40:45;10.30;28.40
4354;DHT22;11018;51.258;6.806;2024-02-23T09:43:12;10.30;28.40
4354;DHT22;11018;51.258;6.806;2024-02-23T09:45:39;10.40;28.20
4354;DHT22;11018;51.258;6.806;2024-02-23T09:48:04;10.50;27.20
4354;DHT22;11018;51.258;6.806;2024-02-23T09:50:32;10.30;27.00
4354;DHT22;11018;51.258;6.806;2024-02-23T09:52:58;10.20;27.30
4354;DHT22;11018;51.258;6.806;2024-02-23T09:55:24;10.00;27.70
4354;DHT22;11018;51.258;6.806;2024-02-23T09:57:53;10.00;27.30
4354;DHT22;11018;51.258;6.806;2024-02-23T10:00:23;10.20;27.10
4354;DHT22;11018;51.258;6.806;2024-02-23T10:02:48;10.40;27.30
4354;DHT22;11018;51.258;6.806;2024-02-23T10:05:15;10.50;26.80
4354;DHT22;11018;51.258;6.806;2024-02-23T10:07:42;10.70;26.00
4354;DHT22;11018;51.258;6.806;2024-02-23T10:10:09;10.70;26.10
4354;DHT22;11018;51.258;6.806;2024-02-23T10:12:36;10.60;26.20
4354;DHT22;11018;51.258;6.806;2024-02-23T10:15:03;10.80;26.30
4354;DHT22;11018;51.258;6.806;2024-02-23T10:17:31;10.90;25.60
4354;DHT22;11018;51.258;6.806;2024-02-23T10:19:58;10.90;25.70
4354;DHT22;11018;51.258;6.806;2024-02-23T10:22:24;11.20;25.20
4354;DHT22;11018;51.258;6.806;2024-02-23T10:24:50;11.30;24.70
4354;DHT22;11018;51.258;6.806;2024-02-23T10:27:17;11.30;24.10
4354;DHT22;11018;51.258;6.806;2024-02-23T10:29:43;11.20;24.40
4354;DHT22;11018;51.258;6.806;2024-02-23T10:32:12;11.30;24.50
4354;DHT22;11018;51.258;6.806;2024-02-23T10:34:42;11.40;24.20
4354;DHT22;11018;51.258;6.806;2024-02-23T10:37:08;11.50;23.60
4354;DHT22;11018;51.258;6.806;2024-02-23T10:39:36;11.50;23.50
4354;DHT22;11018;51.258;6.806;2024-02-23T10:42:04;11.50;23.60
4354;DHT22;11018;51.258;6.806;2024-02-23T10:44:30;11.50;23.60
4354;DHT22;11018;51.258;6.806;2024-02-23T10:46:58;11.30;23.10
4354;DHT22;11018;51.258;6.806;2024-02-23T10:49:24;11.20;23.30
4354;DHT22;11018;51.258;6.806;2024-02-23T10:51:54;11.10;23.50
4354;DHT22;11018;51.258;6.806;2024-02-23T10:54:20;10.80;23.80
4354;DHT22;11018;51.258;6.806;2024-02-23T10:56:48;10.70;24.80
4354;DHT22;11018;51.258;6.806;2024-02-23T10:59:14;10.60;24.70
4354;DHT22;11018;51.258;6.806;2024-02-23T11:01:46;10.60;25.00
4354;DHT22;11018;51.258;6.806;2024-02-23T11:04:17;10.50;25.40
4354;DHT22;11018;51.258;6.806;2024-02-23T11:06:51;10.40;25.50
4354;DHT22;11018;51.258;6.806;2024-02-23T11:09:17;10.40;26.30
4354;DHT22;11018;51.258;6.806;2024-02-23T11:11:55;10.30;26.30
4354;DHT22;11018;51.258;6.806;2024-02-23T11:14:32;10.30;25.80
4354;DHT22;11018;51.258;6.806;2024-02-23T11:16:58;10.30;25.70
4354;DHT22;11018;51.258;6.806;2024-02-23T11:19:33;10.30;25.80
4354;DHT22;11018;51.258;6.806;2024-02-23T11:21:59;10.30;25.90
4354;DHT22;11018;51.258;6.806;2024-02-23T11:24:28;10.40;26.20
4354;DHT22;11018;51.258;6.806;2024-02-23T11:27:01;10.50;25.80
4354;DHT22;11018;51.258;6.806;2024-02-23T11:29:34;10.50;26.00
4354;DHT22;11018;51.258;6.806;2024-02-23T11:32:01;10.70;25.60
4354;DHT22;11018;51.258;6.806;2024-02-23T11:34:29;10.80;25.20
4354;DHT22;11018;51.258;6.806;2024-02-23T11:36:55;10.90;25.30
4354;DHT22;11018;51.258;6.806;2024-02-23T11:39:22;10.90;25.00
4354;DHT22;11018;51.258;6.806;2024-02-23T11:41:51;11.10;25.20
4354;DHT22;11018;51.258;6.806;2024-02-23T11:44:16;11.10;24.60
4354;DHT22;11018;51.258;6.806;2024-02-23T11:46:46;11.10;24.10
4354;DHT22;11018;51.258;6.806;2024-02-23T11:49:13;11.10;24.50
4354;DHT22;11018;51.258;6.806;2024-02-23T11:51:39;11.20;23.80
4354;DHT22;11018;51.258;6.806;2024-02-23T11:54:06;11.20;23.80
4354;DHT22;11018;51.258;6.806;2024-02-23T11:56:31;11.10;23.80
4354;DHT22;11018;51.258;6.806;2024-02-23T11:58:57;11.00;24.50
4354;DHT22;11018;51.258;6.806;2024-02-23T12:01:23;11.00;24.80
4354;DHT22;11018;51.258;6.806;2024-02-23T12:03:48;11.00;25.30
4354;DHT22;11018;51.258;6.806;2024-02-23T12:06:15;11.00;25.50
4354;DHT22;11018;51.258;6.806;2024-02-23T12:08:44;11.10;25.50
4354;DHT22;11018;51.258;6.806;2024-02-23T12:11:11;11.00;25.70
4354;DHT22;11018;51.258;6.806;2024-02-23T12:13:38;11.10;25.70
4354;DHT22;11018;51.258;6.806;2024-02-23T12:16:04;11.20;25.80
4354;DHT22;11018;51.258;6.806;2024-02-23T12:18:33;11.20;25.50
4354;DHT22;11018;51.258;6.806;2024-02-23T12:21:04;11.40;24.60
4354;DHT22;11018;51.258;6.806;2024-02-23T12:23:43;11.50;24.50
4354;DHT22;11018;51.258;6.806;2024-02-23T12:26:18;11.60;23.80
4354;DHT22;11018;51.258;6.806;2024-02-23T12:28:46;11.60;23.40
4354;DHT22;11018;51.258;6.806;2024-02-23T12:31:12;11.60;23.00
4354;DHT22;11018;51.258;6.806;2024-02-23T12:33:38;11.50;23.40
4354;DHT22;11018;51.258;6.806;2024-02-23T12:36:08;11.40;23.40
4354;DHT22;11018;51.258;6.806;2024-02-23T12:38:35;11.40;23.40
4354;DHT22;11018;51.258;6.806;2024-02-23T12:41:01;11.40;23.60
4354;DHT22;11018;51.258;6.806;2024-02-23T12:43:28;11.30;23.30
4354;DHT22;11018;51.258;6.806;2024-02-23T12:45:54;11.30;23.80
4354;DHT22;11018;51.258;6.806;2024-02-23T12:48:20;11.40;23.80
4354;DHT22;11018;51.258;6.806;2024-02-23T12:50:47;11.50;23.80
4354;DHT22;11018;51.258;6.806;2024-02-23T12:55:58;11.50;23.90
4354;DHT22;11018;51.258;6.806;2024-02-23T12:58:24;11.60;23.70
4354;DHT22;11018;51.258;6.806;2024-02-23T13:00:49;11.60;23.90
4354;DHT22;11018;51.258;6.806;2024-02-23T13:03:15;11.70;23.60
4354;DHT22;11018;51.258;6.806;2024-02-23T13:05:40;11.70;23.60
4354;DHT22;11018;51.258;6.806;2024-02-23T13:08:06;11.70;23.40
4354;DHT22;11018;51.258;6.806;2024-02-23T13:10:32;11.80;22.50
4354;DHT22;11018;51.258;6.806;2024-02-23T13:12:57;11.90;22.90
4354;DHT22;11018;51.258;6.806;2024-02-23T13:15:23;11.90;22.80
4354;DHT22;11018;51.258;6.806;2024-02-23T13:17:48;11.90;23.00
4354;DHT22;11018;51.258;6.806;2024-02-23T13:20:14;12.00;22.90
4354;DHT22;11018;51.258;6.806;2024-02-23T13:22:40;12.00;22.00
4354;DHT22;11018;51.258;6.806;2024-02-23T13:25:05;11.80;22.70
4354;DHT22;11018;51.258;6.806;2024-02-23T13:27:31;11.80;23.50
4354;DHT22;11018;51.258;6.806;2024-02-23T13:29:57;11.70;23.60
4354;DHT22;11018;51.258;6.806;2024-02-23T13:32:22;11.70;23.60
4354;DHT22;11018;51.258;6.806;2024-02-23T13:34:48;11.90;23.30
4354;DHT22;11018;51.258;6.806;2024-02-23T13:37:17;12.10;22.50
4354;DHT22;11018;51.258;6.806;2024-02-23T13:39:43;12.30;22.90
4354;DHT22;11018;51.258;6.806;2024-02-23T13:42:09;12.40;21.10
4354;DHT22;11018;51.258;6.806;2024-02-23T13:44:35;12.40;20.60
4354;DHT22;11018;51.258;6.806;2024-02-23T13:47:01;12.30;20.50
4354;DHT22;11018;51.258;6.806;2024-02-23T13:49:27;12.10;21.30
4354;DHT22;11018;51.258;6.806;2024-02-23T13:51:52;12.10;22.20
4354;DHT22;11018;51.258;6.806;2024-02-23T13:54:18;12.10;23.00
4354;DHT22;11018;51.258;6.806;2024-02-23T13:56:43;12.10;22.40
4354;DHT22;11018;51.258;6.806;2024-02-23T13:59:09;12.00;23.10
4354;DHT22;11018;51.258;6.806;2024-02-23T14:01:35;12.20;22.90
4354;DHT22;11018;51.258;6.806;2024-02-23T14:04:06;12.40;22.60
4354;DHT22;11018;51.258;6.806;2024-02-23T14:06:32;12.40;22.10
4354;DHT22;11018;51.258;6.806;2024-02-23T14:08:58;12.40;21.10
4354;DHT22;11018;51.258;6.806;2024-02-23T14:11:24;12.10;21.00
4354;DHT22;11018;51.258;6.806;2024-02-23T14:13:49;11.90;21.70
4354;DHT22;11018;51.258;6.806;2024-02-23T14:16:16;11.80;21.90
4354;DHT22;11018;51.258;6.806;2024-02-23T14:18:42;11.70;21.70
4354;DHT22;11018;51.258;6.806;2024-02-23T14:21:09;11.70;22.20
4354;DHT22;11018;51.258;6.806;2024-02-23T14:23:35;11.70;22.10
4354;DHT22;11018;51.258;6.806;2024-02-23T14:26:01;11.80;22.30
4354;DHT22;11018;51.258;6.806;2024-02-23T14:28:27;11.90;22.20
4354;DHT22;11018;51.258;6.806;2024-02-23T14:30:53;11.90;22.10
4354;DHT22;11018;51.258;6.806;2024-02-23T14:33:19;11.80;22.50
4354;DHT22;11018;51.258;6.806;2024-02-23T14:35:45;11.80;22.20
4354;DHT22;11018;51.258;6.806;2024-02-23T14:38:11;11.60;22.60
4354;DHT22;11018;51.258;6.806;2024-02-23T14:40:36;11.50;23.10
4354;DHT22;11018;51.258;6.806;2024-02-23T14:43:03;11.40;23.50
4354;DHT22;11018;51.258;6.806;2024-02-23T14:45:28;11.40;24.10
4354;DHT22;11018;51.258;6.806;2024-02-23T14:47:54;11.20;25.20
4354;DHT22;11018;51.258;6.806;2024-02-23T14:50:20;11.20;25.30
4354;DHT22;11018;51.258;6.806;2024-02-23T14:52:46;11.20;25.80
4354;DHT22;11018;51.258;6.806;2024-02-23T14:55:12;11.20;25.50
4354;DHT22;11018;51.258;6.806;2024-02-23T14:57:37;11.10;25.60
4354;DHT22;11018;51.258;6.806;2024-02-23T15:00:04;11.20;25.70
4354;DHT22;11018;51.258;6.806;2024-02-23T15:02:30;11.30;25.30
4354;DHT22;11018;51.258;6.806;2024-02-23T15:04:55;11.20;25.20
4354;DHT22;11018;51.258;6.806;2024-02-23T15:07:21;11.20;25.10
4354;DHT22;11018;51.258;6.806;2024-02-23T15:09:46;11.20;24.90
4354;DHT22;11018;51.258;6.806;2024-02-23T15:12:12;11.20;24.40
4354;DHT22;11018;51.258;6.806;2024-02-23T15:14:39;11.20;24.10
4354;DHT22;11018;51.258;6.806;2024-02-23T15:17:05;11.20;24.00
4354;DHT22;11018;51.258;6.806;2024-02-23T15:19:30;11.10;24.20
4354;DHT22;11018;51.258;6.806;2024-02-23T15:21:56;11.20;24.20
4354;DHT22;11018;51.258;6.806;2024-02-23T15:24:22;11.30;24.20
4354;DHT22;11018;51.258;6.806;2024-02-23T15:26:49;11.30;24.50
4354;DHT22;11018;51.258;6.806;2024-02-23T15:29:15;11.20;24.90
4354;DHT22;11018;51.258;6.806;2024-02-23T15:31:40;11.10;25.20
4354;DHT22;11018;51.258;6.806;2024-02-23T15:34:08;11.20;25.10
4354;DHT22;11018;51.258;6.806;2024-02-23T15:36:33;11.20;25.40
4354;DHT22;11018;51.258;6.806;2024-02-23T15:38:59;11.20;26.30
4354;DHT22;11018;51.258;6.806;2024-02-23T15:41:31;11.20;26.30
4354;DHT22;11018;51.258;6.806;2024-02-23T15:44:00;11.10;26.70
4354;DHT22;11018;51.258;6.806;2024-02-23T15:46:25;11.00;26.80
4354;DHT22;11018;51.258;6.806;2024-02-23T15:48:51;11.00;27.20
4354;DHT22;11018;51.258;6.806;2024-02-23T15:51:16;10.90;27.50